createdAt,value
2023-02-28T00:00:42.052Z,101401.43
2023-02-28T00:03:12.849Z,101397.43
2023-02-28T00:05:44.383Z,101400.12
2023-02-28T00:08:15.526Z,101400.36
2023-02-28T00:10:54.912Z,101403.13
2023-02-28T00:13:26.487Z,101405.74
2023-02-28T00:16:06.152Z,101410.15
2023-02-28T00:18:36.997Z,101413.64
2023-02-28T00:21:06.817Z,101416.01
2023-02-28T00:23:36.915Z,101413.96
2023-02-28T00:26:06.052Z,101411.80
2023-02-28T00:28:37.468Z,101405.75
2023-02-28T00:31:10.903Z,101400.36
2023-02-28T00:33:40.266Z,101397.52
2023-02-28T00:36:12.258Z,101395.39
2023-02-28T00:38:41.883Z,101397.21
2023-02-28T00:41:12.462Z,101396.31
2023-02-28T00:43:44.423Z,101406.91
2023-02-28T00:46:13.760Z,101406.20
2023-02-28T00:48:50.239Z,101409.85
2023-02-28T00:51:26.979Z,101409.54
2023-02-28T00:53:58.137Z,101402.71
2023-02-28T00:56:27.666Z,101401.58
2023-02-28T00:58:57.123Z,101401.48
2023-02-28T01:01:32.743Z,101404.02
2023-02-28T01:04:03.092Z,101406.66
2023-02-28T01:06:34.134Z,101407.51
2023-02-28T01:09:03.640Z,101408.64
2023-02-28T01:11:32.967Z,101406.73
2023-02-28T01:14:02.583Z,101409.60
2023-02-28T01:16:31.959Z,101408.11
2023-02-28T01:19:04.754Z,101404.45
2023-02-28T01:21:38.863Z,101404.39
2023-02-28T01:24:12.738Z,101409.40
2023-02-28T01:26:43.383Z,101415.55
2023-02-28T01:29:13.772Z,101408.90
2023-02-28T01:31:43.676Z,101403.85
2023-02-28T01:34:12.378Z,101406.90
2023-02-28T01:36:43.131Z,101412.00
2023-02-28T01:39:15.322Z,101409.34
2023-02-28T01:41:44.698Z,101410.85
2023-02-28T01:44:51.200Z,101419.10
2023-02-28T01:47:20.162Z,101416.82
2023-02-28T01:49:49.689Z,101413.45
2023-02-28T01:52:19.916Z,101416.38
2023-02-28T01:54:54.150Z,101418.14
2023-02-28T01:57:24.649Z,101417.45
2023-02-28T02:00:00.144Z,101416.41
2023-02-28T02:02:29.329Z,101419.54
2023-02-28T02:05:20.035Z,101426.35
2023-02-28T02:07:50.688Z,101423.35
2023-02-28T02:10:25.048Z,101421.38
2023-02-28T02:13:21.132Z,101419.43
2023-02-28T02:15:55.012Z,101425.91
2023-02-28T02:18:47.070Z,101424.64
2023-02-28T02:21:42.707Z,101426.20
2023-02-28T02:24:49.898Z,101426.68
2023-02-28T02:27:48.622Z,101432.91
2023-02-28T02:30:22.189Z,101436.88
2023-02-28T02:33:38.846Z,101434.55
2023-02-28T02:36:14.056Z,101441.51
2023-02-28T02:39:25.168Z,101439.16
2023-02-28T02:41:55.309Z,101441.36
2023-02-28T02:44:38.708Z,101442.88
2023-02-28T02:47:22.396Z,101442.77
2023-02-28T02:49:56.667Z,101452.11
2023-02-28T02:52:30.559Z,101455.67
2023-02-28T02:54:59.896Z,101458.61
2023-02-28T02:57:34.297Z,101459.59
2023-02-28T03:00:05.750Z,101461.93
2023-02-28T03:02:35.035Z,101458.13
2023-02-28T03:07:55.774Z,101463.15
2023-02-28T03:11:41.419Z,101470.98
2023-02-28T03:14:12.310Z,101475.45
2023-02-28T03:21:04.318Z,101481.66
2023-02-28T03:28:12.972Z,101488.30
2023-02-28T03:31:37.032Z,101490.47
2023-02-28T03:35:15.512Z,101489.17
2023-02-28T03:57:43.663Z,101490.96
2023-02-28T04:00:47.541Z,101487.89
2023-02-28T04:03:58.926Z,101486.17
2023-02-28T04:06:34.451Z,101484.81
2023-02-28T04:20:53.678Z,101478.98
2023-02-28T05:01:48.260Z,101496.98
2023-02-28T05:50:33.704Z,101515.86
2023-02-28T05:53:47.558Z,101517.82
2023-02-28T05:59:43.474Z,101523.85
2023-02-28T06:02:27.074Z,101529.20
2023-02-28T06:08:36.611Z,101523.55
2023-02-28T06:12:13.473Z,101528.10
2023-02-28T06:15:10.860Z,101528.43
2023-02-28T06:18:11.478Z,101533.19
2023-02-28T06:20:59.358Z,101533.70
2023-02-28T06:23:44.709Z,101531.15
2023-02-28T06:26:30.257Z,101534.33
2023-02-28T06:30:15.882Z,101534.78
2023-02-28T06:32:29.602Z,101537.52
2023-02-28T06:35:27.129Z,101538.27
2023-02-28T06:42:15.498Z,101541.39
2023-02-28T06:48:09.319Z,101549.47
2023-02-28T06:51:24.734Z,101545.35
2023-02-28T06:54:27.395Z,101545.88
2023-02-28T06:57:17.898Z,101542.60
2023-02-28T07:00:15.947Z,101535.48
2023-02-28T07:03:12.366Z,101531.38
2023-02-28T07:08:47.964Z,101529.19
2023-02-28T07:11:44.199Z,101527.40
2023-02-28T07:15:08.063Z,101524.31
2023-02-28T07:17:38.175Z,101522.73
2023-02-28T07:20:14.764Z,101523.60
2023-02-28T07:22:45.090Z,101524.91
2023-02-28T07:25:15.094Z,101525.91
2023-02-28T07:27:45.504Z,101525.85
2023-02-28T07:30:15.313Z,101529.69
2023-02-28T07:32:49.657Z,101531.81
2023-02-28T07:35:23.496Z,101531.65
2023-02-28T07:37:55.430Z,101528.40
2023-02-28T07:40:29.523Z,101529.08
2023-02-28T07:43:02.361Z,101529.28
2023-02-28T07:45:33.606Z,101529.88
2023-02-28T07:48:07.891Z,101527.64
2023-02-28T07:50:41.467Z,101523.95
2023-02-28T07:53:14.217Z,101525.44
2023-02-28T07:55:45.709Z,101518.45
2023-02-28T07:58:15.417Z,101522.05
2023-02-28T08:00:47.528Z,101520.44
2023-02-28T08:03:21.264Z,101513.21
2023-02-28T08:05:57.141Z,101510.20
2023-02-28T08:08:33.172Z,101513.92
2023-02-28T08:11:08.294Z,101515.14
2023-02-28T08:13:38.506Z,101522.77
2023-02-28T08:16:13.876Z,101520.00
2023-02-28T08:18:45.977Z,101520.02
2023-02-28T08:21:15.574Z,101524.35
2023-02-28T08:23:49.429Z,101528.35
2023-02-28T08:26:20.360Z,101527.52
2023-02-28T08:28:50.857Z,101526.62
2023-02-28T08:31:25.227Z,101527.66
2023-02-28T08:34:00.888Z,101523.52
2023-02-28T08:36:37.211Z,101520.36
2023-02-28T08:39:07.057Z,101515.61
2023-02-28T08:41:37.435Z,101510.94
2023-02-28T08:44:07.531Z,101512.45
2023-02-28T08:46:38.465Z,101508.27
2023-02-28T08:49:09.338Z,101505.98
2023-02-28T08:51:41.362Z,101503.27
2023-02-28T08:54:11.086Z,101499.77
2023-02-28T08:56:41.369Z,101500.25
2023-02-28T08:59:11.432Z,101506.42
2023-02-28T09:01:44.211Z,101504.73
2023-02-28T09:04:17.119Z,101504.14
2023-02-28T09:06:52.568Z,101502.30
2023-02-28T09:09:21.997Z,101499.39
2023-02-28T09:11:51.960Z,101506.46
2023-02-28T09:14:22.690Z,101503.05
2023-02-28T09:16:52.532Z,101507.13
2023-02-28T09:19:22.607Z,101511.58
2023-02-28T09:21:54.389Z,101511.13
2023-02-28T09:24:25.352Z,101506.14
2023-02-28T09:27:04.543Z,101503.09
2023-02-28T09:29:38.176Z,101505.69
2023-02-28T09:32:09.857Z,101505.92
2023-02-28T09:34:41.451Z,101502.79
2023-02-28T09:37:10.875Z,101500.10
2023-02-28T09:39:41.612Z,101498.63
2023-02-28T09:42:19.713Z,101497.24
2023-02-28T09:44:50.746Z,101491.79
2023-02-28T09:47:44.532Z,101489.61
2023-02-28T09:50:28.102Z,101492.60
2023-02-28T09:53:01.941Z,101492.17
2023-02-28T09:55:45.024Z,101489.80
2023-02-28T09:58:25.779Z,101485.69
2023-02-28T10:01:05.171Z,101490.15
2023-02-28T10:03:40.628Z,101488.34
2023-02-28T10:06:14.409Z,101488.16
2023-02-28T10:08:58.113Z,101482.77
2023-02-28T10:11:33.292Z,101476.45
2023-02-28T10:14:07.580Z,101475.66
2023-02-28T10:16:47.867Z,101469.16
2023-02-28T10:19:23.948Z,101467.30
2023-02-28T10:21:58.702Z,101463.05
2023-02-28T10:24:41.698Z,101458.13
2023-02-28T10:27:26.453Z,101457.16
2023-02-28T10:30:02.243Z,101457.69
2023-02-28T10:32:36.647Z,101454.00
2023-02-28T10:35:24.703Z,101459.81
2023-02-28T10:38:02.372Z,101451.08
2023-02-28T10:40:34.245Z,101451.17
2023-02-28T10:43:18.896Z,101446.30
2023-02-28T10:46:30.708Z,101440.47
2023-02-28T10:49:09.712Z,101433.40
2023-02-28T10:51:41.314Z,101428.92
2023-02-28T10:54:37.167Z,101427.13
2023-02-28T10:57:27.582Z,101426.06
2023-02-28T11:00:14.660Z,101420.41
2023-02-28T11:02:48.826Z,101418.59
2023-02-28T11:05:34.410Z,101412.33
2023-02-28T11:08:07.850Z,101408.88
2023-02-28T11:10:37.067Z,101408.96
2023-02-28T11:13:11.129Z,101410.41
2023-02-28T11:15:42.667Z,101408.16
2023-02-28T11:18:42.490Z,101406.80
2023-02-28T11:21:18.976Z,101407.85
2023-02-28T11:23:51.127Z,101403.29
2023-02-28T11:26:41.278Z,101402.59
2023-02-28T11:29:22.411Z,101400.58
2023-02-28T11:32:06.360Z,101396.87
2023-02-28T11:34:36.966Z,101398.55
2023-02-28T11:37:07.675Z,101393.77
2023-02-28T11:39:39.235Z,101387.27
2023-02-28T11:42:11.060Z,101392.40
2023-02-28T11:44:51.912Z,101394.06
2023-02-28T11:47:37.788Z,101390.84
2023-02-28T11:50:31.847Z,101387.17
2023-02-28T11:53:09.986Z,101392.70
2023-02-28T11:56:10.837Z,101391.83
2023-02-28T11:59:01.829Z,101388.46
2023-02-28T12:01:56.663Z,101388.79
2023-02-28T12:04:32.238Z,101390.86
2023-02-28T12:07:23.187Z,101387.02
2023-02-28T12:10:20.520Z,101383.04
2023-02-28T12:13:17.195Z,101379.11
2023-02-28T12:16:05.558Z,101380.05
2023-02-28T12:18:40.237Z,101375.81
2023-02-28T12:21:09.960Z,101376.48
2023-02-28T12:23:48.019Z,101379.59
2023-02-28T12:26:18.497Z,101379.68
2023-02-28T12:28:48.259Z,101377.45
2023-02-28T12:31:38.152Z,101373.26
2023-02-28T12:34:14.736Z,101367.41
2023-02-28T12:36:48.016Z,101361.23
2023-02-28T12:39:20.914Z,101366.77
2023-02-28T12:41:55.549Z,101358.98
2023-02-28T12:44:43.204Z,101352.73
2023-02-28T12:47:20.553Z,101345.98
2023-02-28T12:49:50.473Z,101342.95
2023-02-28T12:52:21.983Z,101338.88
2023-02-28T12:54:54.330Z,101334.38
2023-02-28T12:57:30.404Z,101328.02
2023-02-28T13:00:03.237Z,101322.26
2023-02-28T13:02:51.623Z,101325.54
2023-02-28T13:05:28.523Z,101320.17
2023-02-28T13:08:06.137Z,101317.27
2023-02-28T13:10:45.996Z,101314.98
2023-02-28T13:13:21.798Z,101316.35
2023-02-28T13:16:02.060Z,101315.92
2023-02-28T13:18:47.516Z,101307.85
2023-02-28T13:21:31.413Z,101309.16
2023-02-28T13:24:36.250Z,101300.17
2023-02-28T13:27:08.660Z,101294.92
2023-02-28T13:29:40.289Z,101296.31
2023-02-28T13:32:10.119Z,101288.66
2023-02-28T13:34:43.797Z,101285.89
2023-02-28T13:37:22.273Z,101281.73
2023-02-28T13:39:58.107Z,101277.19
2023-02-28T13:42:38.733Z,101271.79
2023-02-28T13:45:08.324Z,101265.05
2023-02-28T13:47:38.818Z,101261.91
2023-02-28T13:50:27.737Z,101253.70
2023-02-28T13:53:22.017Z,101250.02
2023-02-28T13:56:12.704Z,101253.08
2023-02-28T13:58:42.239Z,101254.22
2023-02-28T14:01:12.553Z,101253.38
2023-02-28T14:03:47.934Z,101244.52
2023-02-28T14:06:24.038Z,101246.98
2023-02-28T14:12:25.991Z,101246.27
2023-02-28T14:15:02.261Z,101244.37
2023-02-28T14:17:34.109Z,101237.27
2023-02-28T14:20:16.974Z,101235.20
2023-02-28T14:22:55.303Z,101227.63
2023-02-28T14:25:28.742Z,101227.52
2023-02-28T14:28:01.064Z,101224.77
2023-02-28T14:30:58.977Z,101220.49
2023-02-28T14:33:31.524Z,101215.05
2023-02-28T14:36:20.775Z,101210.54
2023-02-28T14:39:01.747Z,101207.57
2023-02-28T14:41:39.035Z,101201.85
2023-02-28T14:44:24.003Z,101202.71
2023-02-28T14:46:57.263Z,101198.59
2023-02-28T14:49:31.914Z,101195.18
2023-02-28T14:52:14.250Z,101193.58
2023-02-28T14:54:44.314Z,101192.41
2023-02-28T14:57:44.281Z,101189.66
2023-02-28T15:00:18.911Z,101183.97
2023-02-28T15:02:51.063Z,101180.45
2023-02-28T15:05:24.274Z,101180.48
2023-02-28T15:08:03.175Z,101180.06
2023-02-28T15:10:32.901Z,101180.22
2023-02-28T15:13:10.169Z,101179.09
2023-02-28T15:16:02.294Z,101172.67
2023-02-28T15:18:43.768Z,101170.15
2023-02-28T15:21:24.879Z,101169.02
2023-02-28T15:24:04.006Z,101168.64
2023-02-28T15:26:35.507Z,101167.41
2023-02-28T15:29:09.185Z,101173.20
2023-02-28T15:31:57.330Z,101173.41
2023-02-28T15:34:44.008Z,101176.73
2023-02-28T15:37:35.742Z,101175.77
2023-02-28T15:40:10.217Z,101178.36
2023-02-28T15:42:39.176Z,101176.80
2023-02-28T15:45:31.096Z,101184.45
2023-02-28T15:48:16.961Z,101182.59
2023-02-28T15:50:46.560Z,101181.60
2023-02-28T15:53:17.676Z,101192.52
2023-02-28T15:55:48.928Z,101194.90
2023-02-28T15:58:18.569Z,101201.52
2023-02-28T16:00:53.979Z,101204.11
2023-02-28T16:03:24.457Z,101207.06
2023-02-28T16:06:14.630Z,101206.35
2023-02-28T16:08:46.417Z,101212.52
2023-02-28T16:11:15.879Z,101208.26
2023-02-28T16:13:45.389Z,101204.65
2023-02-28T16:16:23.493Z,101209.59
2023-02-28T16:18:52.695Z,101212.37
2023-02-28T16:21:25.007Z,101209.01
2023-02-28T16:23:55.679Z,101208.75
2023-02-28T16:26:26.136Z,101212.57
2023-02-28T16:28:56.459Z,101207.85
2023-02-28T16:31:33.539Z,101213.48
2023-02-28T16:34:15.172Z,101215.25
2023-02-28T16:36:47.040Z,101214.76
2023-02-28T16:39:17.225Z,101213.41
2023-02-28T16:41:50.299Z,101211.70
2023-02-28T16:44:32.713Z,101212.91
2023-02-28T16:47:03.398Z,101211.80
2023-02-28T16:49:32.840Z,101209.48
2023-02-28T16:52:01.880Z,101207.63
2023-02-28T16:54:33.303Z,101206.57
2023-02-28T16:57:02.896Z,101209.83
2023-02-28T16:59:34.260Z,101207.30
2023-02-28T17:02:07.319Z,101201.20
2023-02-28T17:04:43.225Z,101196.52
2023-02-28T17:07:20.832Z,101196.55
2023-02-28T17:09:50.440Z,101190.55
2023-02-28T17:12:26.314Z,101183.76
2023-02-28T17:14:55.863Z,101179.34
2023-02-28T17:17:26.284Z,101180.48
2023-02-28T17:19:55.889Z,101176.05
2023-02-28T17:22:29.071Z,101169.35
2023-02-28T17:24:59.454Z,101168.35
2023-02-28T17:27:30.049Z,101168.43
2023-02-28T17:29:59.092Z,101176.45
2023-02-28T17:32:31.256Z,101178.87
2023-02-28T17:35:00.285Z,101184.70
2023-02-28T17:37:30.340Z,101187.93
2023-02-28T17:40:01.148Z,101188.15
2023-02-28T17:42:32.692Z,101193.99
2023-02-28T17:45:03.203Z,101193.13
2023-02-28T17:47:33.240Z,101198.61
2023-02-28T17:50:02.887Z,101193.79
2023-02-28T17:52:48.448Z,101195.38
2023-02-28T17:55:30.412Z,101189.21
2023-02-28T17:58:22.097Z,101191.52
2023-02-28T18:00:56.005Z,101197.13
2023-02-28T18:03:27.504Z,101207.20
2023-02-28T18:05:58.564Z,101209.81
2023-02-28T18:08:28.605Z,101208.80
2023-02-28T18:10:57.987Z,101208.19
2023-02-28T18:13:29.890Z,101211.73
2023-02-28T18:15:59.106Z,101215.59
2023-02-28T18:18:29.135Z,101217.25
2023-02-28T18:20:59.582Z,101213.63
2023-02-28T18:23:44.920Z,101211.82
2023-02-28T18:26:15.389Z,101210.03
2023-02-28T18:28:45.726Z,101201.21
2023-02-28T18:31:20.322Z,101200.92
2023-02-28T18:33:51.913Z,101196.58
2023-02-28T18:36:21.397Z,101194.41
2023-02-28T18:38:51.342Z,101197.57
2023-02-28T18:41:23.899Z,101199.66
2023-02-28T18:43:54.852Z,101200.70
2023-02-28T18:46:25.660Z,101200.65
2023-02-28T18:48:54.973Z,101195.03
2023-02-28T18:51:25.418Z,101189.70
2023-02-28T18:53:56.638Z,101189.07
2023-02-28T18:56:26.073Z,101188.86
2023-02-28T18:58:57.160Z,101188.41
2023-02-28T19:01:32.587Z,101187.76
2023-02-28T19:04:02.457Z,101181.08
2023-02-28T19:06:35.810Z,101184.73
2023-02-28T19:09:06.359Z,101182.02
2023-02-28T19:11:38.176Z,101183.98
2023-02-28T19:14:10.418Z,101179.35
2023-02-28T19:16:40.776Z,101172.14
2023-02-28T19:19:10.224Z,101159.13
2023-02-28T19:21:40.034Z,101160.59
2023-02-28T19:24:09.463Z,101163.94
2023-02-28T19:26:41.398Z,101169.30
2023-02-28T19:29:12.599Z,101165.67
2023-02-28T19:31:41.865Z,101164.38
2023-02-28T19:34:12.238Z,101167.50
2023-02-28T19:36:44.792Z,101165.11
2023-02-28T19:39:14.390Z,101159.62
2023-02-28T19:41:43.766Z,101161.58
2023-02-28T19:44:12.945Z,101159.48
2023-02-28T19:46:45.773Z,101162.34
2023-02-28T19:49:15.083Z,101161.79
2023-02-28T19:51:45.630Z,101158.10
2023-02-28T19:54:16.345Z,101154.23
2023-02-28T19:56:46.424Z,101151.40
2023-02-28T19:59:21.306Z,101149.86
2023-02-28T20:01:55.504Z,101148.34
2023-02-28T20:04:24.972Z,101148.65
2023-02-28T20:06:55.493Z,101146.89
2023-02-28T20:09:25.297Z,101146.16
2023-02-28T20:12:00.331Z,101144.23
2023-02-28T20:14:30.685Z,101144.24
2023-02-28T20:17:00.945Z,101138.48
2023-02-28T20:19:33.865Z,101143.82
2023-02-28T20:22:04.846Z,101149.73
2023-02-28T20:24:35.282Z,101146.80
2023-02-28T20:27:05.034Z,101138.48
2023-02-28T20:29:37.620Z,101135.35
2023-02-28T20:32:09.456Z,101136.20
2023-02-28T20:34:38.591Z,101136.48
2023-02-28T20:37:08.506Z,101132.89
2023-02-28T20:39:42.595Z,101127.41
2023-02-28T20:42:11.588Z,101120.96
2023-02-28T20:44:42.195Z,101118.65
2023-02-28T20:47:11.540Z,101113.75
2023-02-28T20:49:41.243Z,101115.70
2023-02-28T20:52:14.359Z,101119.91
2023-02-28T20:54:45.275Z,101118.47
2023-02-28T20:57:17.058Z,101117.79
2023-02-28T20:59:46.329Z,101112.81
2023-02-28T21:02:16.282Z,101105.91
2023-02-28T21:04:45.548Z,101098.85
2023-02-28T21:07:14.684Z,101094.09
2023-02-28T21:09:44.210Z,101082.95
2023-02-28T21:12:13.965Z,101074.67
2023-02-28T21:14:43.915Z,101072.71
2023-02-28T21:17:15.945Z,101063.38
2023-02-28T21:19:45.745Z,101062.14
2023-02-28T21:22:21.245Z,101065.10
2023-02-28T21:24:50.745Z,101066.00
2023-02-28T21:27:21.809Z,101063.91
2023-02-28T21:29:51.469Z,101065.20
2023-02-28T21:32:21.243Z,101058.75
2023-02-28T21:34:54.441Z,101060.42
2023-02-28T21:37:29.011Z,101055.48
2023-02-28T21:40:03.097Z,101042.23
2023-02-28T21:42:33.825Z,101040.85
2023-02-28T21:45:07.083Z,101040.48
2023-02-28T21:47:40.207Z,101036.20
2023-02-28T21:50:10.553Z,101032.88
2023-02-28T21:52:42.574Z,101026.16
2023-02-28T21:55:20.088Z,101023.98
2023-02-28T21:57:52.569Z,101016.23
2023-02-28T22:00:31.145Z,101022.34
2023-02-28T22:03:12.476Z,101011.73
2023-02-28T22:05:51.288Z,101013.84
2023-02-28T22:08:23.679Z,101019.81
2023-02-28T22:10:57.960Z,101016.68
2023-02-28T22:13:42.953Z,101015.66
2023-02-28T22:16:15.843Z,101020.93
2023-02-28T22:18:49.740Z,101016.95
2023-02-28T22:21:20.101Z,101014.66
2023-02-28T22:23:51.193Z,101013.10
2023-02-28T22:26:25.640Z,101009.52
2023-02-28T22:29:02.416Z,101008.88
2023-02-28T22:31:42.775Z,101012.85
2023-02-28T22:34:16.104Z,101008.98
2023-02-28T22:36:45.902Z,101004.45
2023-02-28T22:39:16.417Z,101003.30
2023-02-28T22:41:48.946Z,101000.79
2023-02-28T22:44:24.408Z,101003.80
2023-02-28T22:46:55.035Z,101009.70
2023-02-28T22:49:25.498Z,101006.66
2023-02-28T22:51:55.098Z,101007.88
2023-02-28T22:54:27.340Z,101013.29
2023-02-28T22:56:58.112Z,101010.06
2023-02-28T22:59:28.483Z,101009.45
2023-02-28T23:02:00.337Z,101006.74
2023-02-28T23:04:30.535Z,101004.27
2023-02-28T23:07:03.788Z,101002.28
2023-02-28T23:09:36.481Z,101000.45
2023-02-28T23:12:06.155Z,100995.20
2023-02-28T23:14:36.546Z,100991.61
2023-02-28T23:17:06.601Z,100992.11
2023-02-28T23:19:38.643Z,100988.57
2023-02-28T23:22:10.608Z,100986.67
2023-02-28T23:24:43.994Z,100980.29
2023-02-28T23:27:15.131Z,100974.71
2023-02-28T23:29:46.433Z,100972.09
2023-02-28T23:32:16.045Z,100971.35
2023-02-28T23:34:47.744Z,100973.55
2023-02-28T23:37:19.755Z,100971.41
2023-02-28T23:39:49.538Z,100970.16
2023-02-28T23:46:19.366Z,100965.36
2023-02-28T23:52:30.444Z,100946.42
2023-02-28T23:55:44.922Z,100945.05
